sensor_id;sensor_type;location;lat;lon;timestamp;P1;durP1;ratioP1;P2;durP2;ratioP2
67889;SDS011;54685;52.082;5.426;2024-03-07T00:01:21;38.60;;;22.60;;
67889;SDS011;54685;52.082;5.426;2024-03-07T00:03:48;41.25;;;24.45;;
67889;SDS011;54685;52.082;5.426;2024-03-07T00:06:16;38.90;;;24.10;;
67889;SDS011;54685;52.082;5.426;2024-03-07T00:08:43;38.58;;;22.40;;
67889;SDS011;54685;52.082;5.426;2024-03-07T00:11:10;35.97;;;22.70;;
67889;SDS011;54685;52.082;5.426;2024-03-07T00:13:37;36.67;;;22.70;;
67889;SDS011;54685;52.082;5.426;2024-03-07T00:16:04;34.55;;;21.50;;
67889;SDS011;54685;52.082;5.426;2024-03-07T00:18:31;37.40;;;22.42;;
67889;SDS011;54685;52.082;5.426;2024-03-07T00:21:00;35.35;;;22.13;;
67889;SDS011;54685;52.082;5.426;2024-03-07T00:23:27;33.38;;;21.17;;
67889;SDS011;54685;52.082;5.426;2024-03-07T00:25:54;36.00;;;22.23;;
67889;SDS011;54685;52.082;5.426;2024-03-07T00:28:21;38.03;;;22.15;;
67889;SDS011;54685;52.082;5.426;2024-03-07T00:30:48;36.47;;;21.88;;
67889;SDS011;54685;52.082;5.426;2024-03-07T00:33:15;36.47;;;23.05;;
67889;SDS011;54685;52.082;5.426;2024-03-07T00:35:42;37.30;;;21.95;;
67889;SDS011;54685;52.082;5.426;2024-03-07T00:38:11;38.58;;;23.02;;
67889;SDS011;54685;52.082;5.426;2024-03-07T00:40:37;36.92;;;22.23;;
67889;SDS011;54685;52.082;5.426;2024-03-07T00:43:04;35.67;;;21.83;;
67889;SDS011;54685;52.082;5.426;2024-03-07T00:45:32;36.92;;;22.40;;
67889;SDS011;54685;52.082;5.426;2024-03-07T00:47:59;38.28;;;21.67;;
67889;SDS011;54685;52.082;5.426;2024-03-07T00:50:27;42.17;;;23.27;;
67889;SDS011;54685;52.082;5.426;2024-03-07T00:52:54;38.72;;;23.73;;
67889;SDS011;54685;52.082;5.426;2024-03-07T00:55:21;40.58;;;23.48;;
67889;SDS011;54685;52.082;5.426;2024-03-07T00:57:48;42.13;;;23.77;;
67889;SDS011;54685;52.082;5.426;2024-03-07T01:00:15;39.83;;;23.55;;
67889;SDS011;54685;52.082;5.426;2024-03-07T01:02:46;42.25;;;24.35;;
67889;SDS011;54685;52.082;5.426;2024-03-07T01:05:13;38.92;;;24.08;;
67889;SDS011;54685;52.082;5.426;2024-03-07T01:07:41;41.30;;;24.83;;
67889;SDS011;54685;52.082;5.426;2024-03-07T01:10:13;45.53;;;26.25;;
67889;SDS011;54685;52.082;5.426;2024-03-07T01:12:43;41.50;;;25.25;;
67889;SDS011;54685;52.082;5.426;2024-03-07T01:15:10;43.67;;;25.60;;
67889;SDS011;54685;52.082;5.426;2024-03-07T01:17:39;42.42;;;24.05;;
67889;SDS011;54685;52.082;5.426;2024-03-07T01:20:07;45.05;;;24.23;;
67889;SDS011;54685;52.082;5.426;2024-03-07T01:22:35;38.28;;;23.55;;
67889;SDS011;54685;52.082;5.426;2024-03-07T01:25:02;42.47;;;24.00;;
67889;SDS011;54685;52.082;5.426;2024-03-07T01:27:30;36.58;;;22.50;;
67889;SDS011;54685;52.082;5.426;2024-03-07T01:29:57;41.42;;;23.70;;
67889;SDS011;54685;52.082;5.426;2024-03-07T01:32:24;35.63;;;22.48;;
67889;SDS011;54685;52.082;5.426;2024-03-07T01:34:51;43.38;;;22.13;;
67889;SDS011;54685;52.082;5.426;2024-03-07T01:37:17;36.80;;;22.42;;
67889;SDS011;54685;52.082;5.426;2024-03-07T01:39:44;41.03;;;23.05;;
67889;SDS011;54685;52.082;5.426;2024-03-07T01:42:12;37.72;;;22.75;;
67889;SDS011;54685;52.082;5.426;2024-03-07T01:44:39;40.50;;;23.40;;
67889;SDS011;54685;52.082;5.426;2024-03-07T01:47:07;38.15;;;23.00;;
67889;SDS011;54685;52.082;5.426;2024-03-07T01:49:35;42.58;;;23.60;;
67889;SDS011;54685;52.082;5.426;2024-03-07T01:52:11;38.58;;;22.98;;
67889;SDS011;54685;52.082;5.426;2024-03-07T01:54:39;36.70;;;22.25;;
67889;SDS011;54685;52.082;5.426;2024-03-07T01:57:06;43.00;;;23.50;;
67889;SDS011;54685;52.082;5.426;2024-03-07T01:59:34;36.63;;;21.77;;
67889;SDS011;54685;52.082;5.426;2024-03-07T02:02:02;35.88;;;21.40;;
67889;SDS011;54685;52.082;5.426;2024-03-07T02:04:29;36.72;;;20.90;;
67889;SDS011;54685;52.082;5.426;2024-03-07T02:06:56;34.35;;;21.00;;
67889;SDS011;54685;52.082;5.426;2024-03-07T02:09:23;33.05;;;20.48;;
67889;SDS011;54685;52.082;5.426;2024-03-07T02:11:50;35.47;;;21.85;;
67889;SDS011;54685;52.082;5.426;2024-03-07T02:14:17;41.88;;;24.52;;
67889;SDS011;54685;52.082;5.426;2024-03-07T02:16:43;45.42;;;26.52;;
67889;SDS011;54685;52.082;5.426;2024-03-07T02:19:12;44.60;;;26.08;;
67889;SDS011;54685;52.082;5.426;2024-03-07T02:21:41;47.25;;;26.45;;
67889;SDS011;54685;52.082;5.426;2024-03-07T02:24:08;48.63;;;26.25;;
67889;SDS011;54685;52.082;5.426;2024-03-07T02:26:36;48.50;;;26.15;;
67889;SDS011;54685;52.082;5.426;2024-03-07T02:29:05;46.95;;;24.90;;
67889;SDS011;54685;52.082;5.426;2024-03-07T02:31:32;50.05;;;25.77;;
67889;SDS011;54685;52.082;5.426;2024-03-07T02:34:05;45.58;;;25.63;;
67889;SDS011;54685;52.082;5.426;2024-03-07T02:36:33;40.88;;;24.70;;
67889;SDS011;54685;52.082;5.426;2024-03-07T02:39:00;47.35;;;25.13;;
67889;SDS011;54685;52.082;5.426;2024-03-07T02:41:27;43.35;;;24.52;;
67889;SDS011;54685;52.082;5.426;2024-03-07T02:43:54;48.05;;;25.48;;
67889;SDS011;54685;52.082;5.426;2024-03-07T02:46:21;45.83;;;25.65;;
67889;SDS011;54685;52.082;5.426;2024-03-07T02:48:48;42.15;;;24.13;;
67889;SDS011;54685;52.082;5.426;2024-03-07T02:51:15;44.72;;;24.85;;
67889;SDS011;54685;52.082;5.426;2024-03-07T02:53:42;42.38;;;25.40;;
67889;SDS011;54685;52.082;5.426;2024-03-07T02:56:09;41.47;;;25.23;;
67889;SDS011;54685;52.082;5.426;2024-03-07T02:58:36;41.05;;;24.10;;
67889;SDS011;54685;52.082;5.426;2024-03-07T03:01:02;44.92;;;24.58;;
67889;SDS011;54685;52.082;5.426;2024-03-07T03:03:29;46.30;;;25.63;;
67889;SDS011;54685;52.082;5.426;2024-03-07T03:05:59;42.63;;;24.48;;
67889;SDS011;54685;52.082;5.426;2024-03-07T03:08:26;42.35;;;24.30;;
67889;SDS011;54685;52.082;5.426;2024-03-07T03:10:56;47.33;;;26.30;;
67889;SDS011;54685;52.082;5.426;2024-03-07T03:13:23;43.90;;;24.25;;
67889;SDS011;54685;52.082;5.426;2024-03-07T03:15:51;45.90;;;25.83;;
67889;SDS011;54685;52.082;5.426;2024-03-07T03:18:18;45.65;;;25.08;;
67889;SDS011;54685;52.082;5.426;2024-03-07T03:20:45;44.47;;;25.30;;
67889;SDS011;54685;52.082;5.426;2024-03-07T03:23:14;44.08;;;26.08;;
67889;SDS011;54685;52.082;5.426;2024-03-07T03:25:47;49.92;;;27.23;;
67889;SDS011;54685;52.082;5.426;2024-03-07T03:28:17;44.70;;;26.08;;
67889;SDS011;54685;52.082;5.426;2024-03-07T03:30:46;50.10;;;25.60;;
67889;SDS011;54685;52.082;5.426;2024-03-07T03:33:13;46.90;;;27.08;;
67889;SDS011;54685;52.082;5.426;2024-03-07T03:35:44;52.78;;;26.27;;
67889;SDS011;54685;52.082;5.426;2024-03-07T03:38:11;57.22;;;27.27;;
67889;SDS011;54685;52.082;5.426;2024-03-07T03:40:38;70.00;;;38.17;;
67889;SDS011;54685;52.082;5.426;2024-03-07T03:43:04;65.32;;;34.35;;
67889;SDS011;54685;52.082;5.426;2024-03-07T03:45:32;57.97;;;30.10;;
67889;SDS011;54685;52.082;5.426;2024-03-07T03:48:00;52.15;;;29.15;;
67889;SDS011;54685;52.082;5.426;2024-03-07T03:50:29;50.78;;;27.08;;
67889;SDS011;54685;52.082;5.426;2024-03-07T03:52:57;45.83;;;25.73;;
67889;SDS011;54685;52.082;5.426;2024-03-07T03:55:24;49.17;;;25.85;;
67889;SDS011;54685;52.082;5.426;2024-03-07T03:57:52;45.58;;;24.48;;
67889;SDS011;54685;52.082;5.426;2024-03-07T04:00:20;45.50;;;23.98;;
67889;SDS011;54685;52.082;5.426;2024-03-07T04:02:49;38.38;;;22.67;;
67889;SDS011;54685;52.082;5.426;2024-03-07T04:05:19;40.10;;;22.38;;
67889;SDS011;54685;52.082;5.426;2024-03-07T04:07:48;67.85;;;22.85;;
67889;SDS011;54685;52.082;5.426;2024-03-07T04:10:15;48.17;;;22.48;;
67889;SDS011;54685;52.082;5.426;2024-03-07T04:12:44;41.72;;;21.55;;
67889;SDS011;54685;52.082;5.426;2024-03-07T04:15:12;36.00;;;21.75;;
67889;SDS011;54685;52.082;5.426;2024-03-07T04:17:42;34.13;;;21.63;;
67889;SDS011;54685;52.082;5.426;2024-03-07T04:20:11;32.30;;;21.23;;
67889;SDS011;54685;52.082;5.426;2024-03-07T04:22:39;33.30;;;20.80;;
67889;SDS011;54685;52.082;5.426;2024-03-07T04:25:06;36.60;;;22.30;;
67889;SDS011;54685;52.082;5.426;2024-03-07T04:27:34;39.95;;;23.88;;
67889;SDS011;54685;52.082;5.426;2024-03-07T04:30:03;41.42;;;22.63;;
67889;SDS011;54685;52.082;5.426;2024-03-07T04:32:31;44.22;;;23.73;;
67889;SDS011;54685;52.082;5.426;2024-03-07T04:34:58;43.47;;;24.73;;
67889;SDS011;54685;52.082;5.426;2024-03-07T04:37:33;45.08;;;23.88;;
67889;SDS011;54685;52.082;5.426;2024-03-07T04:40:04;45.22;;;25.80;;
67889;SDS011;54685;52.082;5.426;2024-03-07T04:42:44;46.10;;;25.83;;
67889;SDS011;54685;52.082;5.426;2024-03-07T04:45:13;38.08;;;24.60;;
67889;SDS011;54685;52.082;5.426;2024-03-07T04:47:41;47.13;;;25.00;;
67889;SDS011;54685;52.082;5.426;2024-03-07T04:50:08;39.50;;;23.80;;
67889;SDS011;54685;52.082;5.426;2024-03-07T04:52:37;39.45;;;23.95;;
67889;SDS011;54685;52.082;5.426;2024-03-07T04:55:07;45.42;;;25.15;;
67889;SDS011;54685;52.082;5.426;2024-03-07T04:57:35;41.17;;;23.92;;
67889;SDS011;54685;52.082;5.426;2024-03-07T05:00:07;47.17;;;23.42;;
67889;SDS011;54685;52.082;5.426;2024-03-07T05:02:40;43.13;;;24.45;;
67889;SDS011;54685;52.082;5.426;2024-03-07T05:05:08;43.00;;;24.45;;
67889;SDS011;54685;52.082;5.426;2024-03-07T05:07:35;40.85;;;23.42;;
67889;SDS011;54685;52.082;5.426;2024-03-07T05:10:02;45.08;;;24.77;;
67889;SDS011;54685;52.082;5.426;2024-03-07T05:12:31;44.58;;;24.85;;
67889;SDS011;54685;52.082;5.426;2024-03-07T05:14:58;45.95;;;25.02;;
67889;SDS011;54685;52.082;5.426;2024-03-07T05:17:25;46.10;;;25.88;;
67889;SDS011;54685;52.082;5.426;2024-03-07T05:19:52;45.33;;;26.25;;
67889;SDS011;54685;52.082;5.426;2024-03-07T05:22:19;43.67;;;25.17;;
67889;SDS011;54685;52.082;5.426;2024-03-07T05:24:48;39.42;;;24.63;;
67889;SDS011;54685;52.082;5.426;2024-03-07T05:27:16;43.38;;;25.50;;
67889;SDS011;54685;52.082;5.426;2024-03-07T05:29:43;44.47;;;25.38;;
67889;SDS011;54685;52.082;5.426;2024-03-07T05:32:19;44.70;;;24.98;;
67889;SDS011;54685;52.082;5.426;2024-03-07T05:34:47;43.60;;;25.65;;
67889;SDS011;54685;52.082;5.426;2024-03-07T05:37:14;41.72;;;24.00;;
67889;SDS011;54685;52.082;5.426;2024-03-07T05:39:40;42.75;;;25.00;;
67889;SDS011;54685;52.082;5.426;2024-03-07T05:42:07;42.58;;;25.00;;
67889;SDS011;54685;52.082;5.426;2024-03-07T05:44:34;45.45;;;25.42;;
67889;SDS011;54685;52.082;5.426;2024-03-07T05:47:01;47.50;;;25.63;;
67889;SDS011;54685;52.082;5.426;2024-03-07T05:49:27;46.90;;;25.05;;
67889;SDS011;54685;52.082;5.426;2024-03-07T05:51:56;43.58;;;25.17;;
67889;SDS011;54685;52.082;5.426;2024-03-07T05:54:24;46.30;;;25.63;;
67889;SDS011;54685;52.082;5.426;2024-03-07T05:56:50;47.95;;;26.60;;
67889;SDS011;54685;52.082;5.426;2024-03-07T05:59:17;42.83;;;24.15;;
67889;SDS011;54685;52.082;5.426;2024-03-07T06:01:44;51.58;;;25.52;;
67889;SDS011;54685;52.082;5.426;2024-03-07T06:04:11;48.42;;;25.67;;
67889;SDS011;54685;52.082;5.426;2024-03-07T06:06:38;42.47;;;25.33;;
67889;SDS011;54685;52.082;5.426;2024-03-07T06:09:05;46.50;;;26.10;;
67889;SDS011;54685;52.082;5.426;2024-03-07T06:11:34;43.95;;;25.63;;
67889;SDS011;54685;52.082;5.426;2024-03-07T06:14:08;49.45;;;26.05;;
67889;SDS011;54685;52.082;5.426;2024-03-07T06:16:36;49.75;;;25.67;;
67889;SDS011;54685;52.082;5.426;2024-03-07T06:19:05;50.33;;;25.98;;
67889;SDS011;54685;52.082;5.426;2024-03-07T06:21:39;42.72;;;25.38;;
67889;SDS011;54685;52.082;5.426;2024-03-07T06:24:07;45.58;;;26.65;;
67889;SDS011;54685;52.082;5.426;2024-03-07T06:26:37;44.92;;;26.08;;
67889;SDS011;54685;52.082;5.426;2024-03-07T06:29:12;50.95;;;26.73;;
67889;SDS011;54685;52.082;5.426;2024-03-07T06:31:39;51.00;;;27.77;;
67889;SDS011;54685;52.082;5.426;2024-03-07T06:34:09;63.03;;;28.02;;
67889;SDS011;54685;52.082;5.426;2024-03-07T06:36:36;52.72;;;28.02;;
67889;SDS011;54685;52.082;5.426;2024-03-07T06:39:03;56.42;;;30.00;;
67889;SDS011;54685;52.082;5.426;2024-03-07T06:41:33;53.80;;;28.55;;
67889;SDS011;54685;52.082;5.426;2024-03-07T06:44:01;58.40;;;28.83;;
67889;SDS011;54685;52.082;5.426;2024-03-07T06:46:28;53.08;;;28.50;;
67889;SDS011;54685;52.082;5.426;2024-03-07T06:48:55;54.53;;;28.50;;
67889;SDS011;54685;52.082;5.426;2024-03-07T06:51:22;50.83;;;27.83;;
67889;SDS011;54685;52.082;5.426;2024-03-07T06:53:51;51.50;;;28.25;;
67889;SDS011;54685;52.082;5.426;2024-03-07T06:56:18;52.95;;;29.85;;
67889;SDS011;54685;52.082;5.426;2024-03-07T06:58:45;59.13;;;32.33;;
67889;SDS011;54685;52.082;5.426;2024-03-07T07:01:13;54.65;;;29.80;;
67889;SDS011;54685;52.082;5.426;2024-03-07T07:03:43;55.63;;;32.22;;
67889;SDS011;54685;52.082;5.426;2024-03-07T07:06:10;63.47;;;33.10;;
67889;SDS011;54685;52.082;5.426;2024-03-07T07:08:41;67.78;;;33.50;;
67889;SDS011;54685;52.082;5.426;2024-03-07T07:11:08;57.38;;;31.55;;
67889;SDS011;54685;52.082;5.426;2024-03-07T07:13:38;64.07;;;34.65;;
67889;SDS011;54685;52.082;5.426;2024-03-07T07:16:05;58.05;;;32.28;;
67889;SDS011;54685;52.082;5.426;2024-03-07T07:18:32;60.80;;;32.65;;
67889;SDS011;54685;52.082;5.426;2024-03-07T07:21:00;64.70;;;33.05;;
67889;SDS011;54685;52.082;5.426;2024-03-07T07:23:29;68.68;;;33.90;;
67889;SDS011;54685;52.082;5.426;2024-03-07T07:25:57;61.38;;;34.30;;
67889;SDS011;54685;52.082;5.426;2024-03-07T07:28:23;62.17;;;33.60;;
67889;SDS011;54685;52.082;5.426;2024-03-07T07:30:51;57.22;;;32.63;;
67889;SDS011;54685;52.082;5.426;2024-03-07T07:33:18;66.63;;;33.85;;
67889;SDS011;54685;52.082;5.426;2024-03-07T07:35:46;60.65;;;31.73;;
67889;SDS011;54685;52.082;5.426;2024-03-07T07:38:12;62.47;;;33.20;;
67889;SDS011;54685;52.082;5.426;2024-03-07T07:40:42;62.65;;;32.05;;
67889;SDS011;54685;52.082;5.426;2024-03-07T07:43:09;63.35;;;31.13;;
67889;SDS011;54685;52.082;5.426;2024-03-07T07:45:50;63.08;;;32.35;;
67889;SDS011;54685;52.082;5.426;2024-03-07T07:48:17;56.30;;;32.70;;
67889;SDS011;54685;52.082;5.426;2024-03-07T07:50:45;57.85;;;30.88;;
67889;SDS011;54685;52.082;5.426;2024-03-07T07:53:14;56.72;;;30.42;;
67889;SDS011;54685;52.082;5.426;2024-03-07T07:55:41;54.92;;;30.15;;
67889;SDS011;54685;52.082;5.426;2024-03-07T07:58:08;59.92;;;30.67;;
67889;SDS011;54685;52.082;5.426;2024-03-07T08:00:35;52.03;;;29.20;;
67889;SDS011;54685;52.082;5.426;2024-03-07T08:03:03;53.30;;;29.50;;
67889;SDS011;54685;52.082;5.426;2024-03-07T08:05:35;48.13;;;29.60;;
67889;SDS011;54685;52.082;5.426;2024-03-07T08:08:04;47.55;;;29.40;;
67889;SDS011;54685;52.082;5.426;2024-03-07T08:10:33;48.33;;;27.30;;
67889;SDS011;54685;52.082;5.426;2024-03-07T08:13:02;46.05;;;27.27;;
67889;SDS011;54685;52.082;5.426;2024-03-07T08:15:32;47.25;;;28.48;;
67889;SDS011;54685;52.082;5.426;2024-03-07T08:18:00;45.45;;;28.50;;
67889;SDS011;54685;52.082;5.426;2024-03-07T08:20:27;45.90;;;27.55;;
67889;SDS011;54685;52.082;5.426;2024-03-07T08:22:55;44.95;;;27.40;;
67889;SDS011;54685;52.082;5.426;2024-03-07T08:25:23;47.60;;;28.08;;
67889;SDS011;54685;52.082;5.426;2024-03-07T08:27:53;44.25;;;26.58;;
67889;SDS011;54685;52.082;5.426;2024-03-07T08:30:21;45.00;;;26.65;;
67889;SDS011;54685;52.082;5.426;2024-03-07T08:32:50;36.45;;;24.55;;
67889;SDS011;54685;52.082;5.426;2024-03-07T08:35:21;41.60;;;25.27;;
67889;SDS011;54685;52.082;5.426;2024-03-07T08:37:49;42.97;;;24.08;;
67889;SDS011;54685;52.082;5.426;2024-03-07T08:40:22;38.30;;;23.92;;
67889;SDS011;54685;52.082;5.426;2024-03-07T08:42:55;37.92;;;24.20;;
67889;SDS011;54685;52.082;5.426;2024-03-07T08:45:22;34.10;;;23.20;;
67889;SDS011;54685;52.082;5.426;2024-03-07T08:47:50;34.08;;;21.92;;
67889;SDS011;54685;52.082;5.426;2024-03-07T08:50:18;36.95;;;20.67;;
67889;SDS011;54685;52.082;5.426;2024-03-07T08:52:45;32.10;;;20.90;;
67889;SDS011;54685;52.082;5.426;2024-03-07T08:55:15;30.08;;;19.88;;
67889;SDS011;54685;52.082;5.426;2024-03-07T08:57:45;30.95;;;19.88;;
67889;SDS011;54685;52.082;5.426;2024-03-07T09:00:15;31.75;;;20.80;;
67889;SDS011;54685;52.082;5.426;2024-03-07T09:02:53;34.53;;;20.55;;
67889;SDS011;54685;52.082;5.426;2024-03-07T09:05:22;30.17;;;19.75;;
67889;SDS011;54685;52.082;5.426;2024-03-07T09:07:50;28.75;;;19.55;;
67889;SDS011;54685;52.082;5.426;2024-03-07T09:10:19;31.65;;;20.23;;
67889;SDS011;54685;52.082;5.426;2024-03-07T09:12:47;29.17;;;20.45;;
67889;SDS011;54685;52.082;5.426;2024-03-07T09:15:16;25.95;;;19.15;;
67889;SDS011;54685;52.082;5.426;2024-03-07T09:17:45;30.13;;;19.77;;
67889;SDS011;54685;52.082;5.426;2024-03-07T09:20:13;29.42;;;18.48;;
67889;SDS011;54685;52.082;5.426;2024-03-07T09:22:41;26.92;;;18.90;;
67889;SDS011;54685;52.082;5.426;2024-03-07T09:25:09;26.60;;;18.83;;
67889;SDS011;54685;52.082;5.426;2024-03-07T09:27:36;27.48;;;19.08;;
67889;SDS011;54685;52.082;5.426;2024-03-07T09:30:04;24.77;;;17.52;;
67889;SDS011;54685;52.082;5.426;2024-03-07T09:32:35;26.48;;;18.17;;
67889;SDS011;54685;52.082;5.426;2024-03-07T09:35:04;25.23;;;18.13;;
67889;SDS011;54685;52.082;5.426;2024-03-07T09:37:33;23.83;;;16.45;;
67889;SDS011;54685;52.082;5.426;2024-03-07T09:40:02;23.88;;;16.20;;
67889;SDS011;54685;52.082;5.426;2024-03-07T09:42:30;24.70;;;16.58;;
67889;SDS011;54685;52.082;5.426;2024-03-07T09:44:59;23.27;;;16.90;;
67889;SDS011;54685;52.082;5.426;2024-03-07T09:47:30;25.38;;;16.58;;
67889;SDS011;54685;52.082;5.426;2024-03-07T09:49:58;24.08;;;16.63;;
67889;SDS011;54685;52.082;5.426;2024-03-07T09:52:26;22.20;;;15.63;;
67889;SDS011;54685;52.082;5.426;2024-03-07T09:54:55;23.60;;;16.52;;
67889;SDS011;54685;52.082;5.426;2024-03-07T09:57:22;21.83;;;15.02;;
67889;SDS011;54685;52.082;5.426;2024-03-07T09:59:50;21.10;;;14.57;;
67889;SDS011;54685;52.082;5.426;2024-03-07T10:02:20;21.38;;;12.93;;
67889;SDS011;54685;52.082;5.426;2024-03-07T10:04:50;19.98;;;14.32;;
67889;SDS011;54685;52.082;5.426;2024-03-07T10:07:19;20.10;;;13.85;;
67889;SDS011;54685;52.082;5.426;2024-03-07T10:09:48;18.13;;;14.10;;
67889;SDS011;54685;52.082;5.426;2024-03-07T10:12:18;21.63;;;14.15;;
67889;SDS011;54685;52.082;5.426;2024-03-07T10:14:48;17.65;;;13.85;;
67889;SDS011;54685;52.082;5.426;2024-03-07T10:17:19;17.23;;;13.10;;
67889;SDS011;54685;52.082;5.426;2024-03-07T10:19:46;17.58;;;13.27;;
67889;SDS011;54685;52.082;5.426;2024-03-07T10:22:19;16.30;;;13.32;;
67889;SDS011;54685;52.082;5.426;2024-03-07T10:24:52;18.92;;;13.43;;
67889;SDS011;54685;52.082;5.426;2024-03-07T10:27:23;18.10;;;13.15;;
67889;SDS011;54685;52.082;5.426;2024-03-07T10:29:52;22.48;;;14.00;;
67889;SDS011;54685;52.082;5.426;2024-03-07T10:32:19;19.05;;;13.95;;
67889;SDS011;54685;52.082;5.426;2024-03-07T10:34:50;19.02;;;13.90;;
67889;SDS011;54685;52.082;5.426;2024-03-07T10:37:17;17.73;;;14.38;;
67889;SDS011;54685;52.082;5.426;2024-03-07T10:39:47;17.85;;;14.75;;
67889;SDS011;54685;52.082;5.426;2024-03-07T10:42:16;19.83;;;14.70;;
67889;SDS011;54685;52.082;5.426;2024-03-07T10:44:45;18.20;;;13.45;;
67889;SDS011;54685;52.082;5.426;2024-03-07T10:47:17;18.63;;;13.93;;
67889;SDS011;54685;52.082;5.426;2024-03-07T10:52:39;18.63;;;14.77;;
67889;SDS011;54685;52.082;5.426;2024-03-07T10:55:37;20.90;;;14.48;;
67889;SDS011;54685;52.082;5.426;2024-03-07T10:58:10;19.80;;;14.60;;
67889;SDS011;54685;52.082;5.426;2024-03-07T11:00:51;18.58;;;12.95;;
67889;SDS011;54685;52.082;5.426;2024-03-07T11:03:23;18.73;;;13.52;;
67889;SDS011;54685;52.082;5.426;2024-03-07T11:05:50;17.35;;;13.23;;
67889;SDS011;54685;52.082;5.426;2024-03-07T11:08:17;19.52;;;14.23;;
67889;SDS011;54685;52.082;5.426;2024-03-07T11:10:45;21.27;;;14.05;;
67889;SDS011;54685;52.082;5.426;2024-03-07T11:13:13;22.02;;;14.10;;
67889;SDS011;54685;52.082;5.426;2024-03-07T11:15:43;17.83;;;13.05;;
67889;SDS011;54685;52.082;5.426;2024-03-07T11:18:13;18.55;;;13.55;;
67889;SDS011;54685;52.082;5.426;2024-03-07T11:20:43;18.33;;;12.75;;
67889;SDS011;54685;52.082;5.426;2024-03-07T11:23:31;22.10;;;13.23;;
67889;SDS011;54685;52.082;5.426;2024-03-07T11:26:07;16.08;;;12.82;;
67889;SDS011;54685;52.082;5.426;2024-03-07T11:28:39;21.38;;;13.13;;
67889;SDS011;54685;52.082;5.426;2024-03-07T11:33:37;20.38;;;14.13;;
67889;SDS011;54685;52.082;5.426;2024-03-07T11:36:09;19.10;;;14.10;;
67889;SDS011;54685;52.082;5.426;2024-03-07T11:38:48;19.45;;;13.68;;
67889;SDS011;54685;52.082;5.426;2024-03-07T11:41:18;22.10;;;14.02;;
67889;SDS011;54685;52.082;5.426;2024-03-07T11:43:46;17.05;;;13.27;;
67889;SDS011;54685;52.082;5.426;2024-03-07T11:46:13;22.77;;;14.98;;
67889;SDS011;54685;52.082;5.426;2024-03-07T11:48:44;22.13;;;14.75;;
67889;SDS011;54685;52.082;5.426;2024-03-07T11:51:17;20.05;;;13.70;;
67889;SDS011;54685;52.082;5.426;2024-03-07T11:53:44;22.65;;;14.52;;
67889;SDS011;54685;52.082;5.426;2024-03-07T11:56:14;19.63;;;14.30;;
67889;SDS011;54685;52.082;5.426;2024-03-07T11:58:43;18.95;;;13.77;;
67889;SDS011;54685;52.082;5.426;2024-03-07T12:01:10;18.85;;;14.10;;
67889;SDS011;54685;52.082;5.426;2024-03-07T12:03:40;19.80;;;13.75;;
67889;SDS011;54685;52.082;5.426;2024-03-07T12:06:09;20.88;;;14.98;;
67889;SDS011;54685;52.082;5.426;2024-03-07T12:08:40;20.08;;;15.13;;
67889;SDS011;54685;52.082;5.426;2024-03-07T12:11:08;17.77;;;14.05;;
67889;SDS011;54685;52.082;5.426;2024-03-07T12:13:39;19.30;;;14.10;;
67889;SDS011;54685;52.082;5.426;2024-03-07T12:16:07;20.48;;;14.55;;
67889;SDS011;54685;52.082;5.426;2024-03-07T12:18:35;19.05;;;13.38;;
67889;SDS011;54685;52.082;5.426;2024-03-07T12:21:03;17.77;;;13.80;;
67889;SDS011;54685;52.082;5.426;2024-03-07T12:23:37;17.70;;;13.02;;
67889;SDS011;54685;52.082;5.426;2024-03-07T12:26:04;17.58;;;12.73;;
67889;SDS011;54685;52.082;5.426;2024-03-07T12:28:34;16.60;;;12.93;;
67889;SDS011;54685;52.082;5.426;2024-03-07T12:31:02;19.98;;;13.57;;
67889;SDS011;54685;52.082;5.426;2024-03-07T12:33:30;19.55;;;13.90;;
67889;SDS011;54685;52.082;5.426;2024-03-07T12:36:01;16.27;;;12.32;;
67889;SDS011;54685;52.082;5.426;2024-03-07T12:38:37;15.65;;;13.18;;
67889;SDS011;54685;52.082;5.426;2024-03-07T12:41:08;16.17;;;12.82;;
67889;SDS011;54685;52.082;5.426;2024-03-07T12:43:43;18.42;;;13.52;;
67889;SDS011;54685;52.082;5.426;2024-03-07T12:46:14;18.50;;;13.27;;
67889;SDS011;54685;52.082;5.426;2024-03-07T12:48:42;17.05;;;13.60;;
67889;SDS011;54685;52.082;5.426;2024-03-07T12:51:12;16.80;;;12.88;;
67889;SDS011;54685;52.082;5.426;2024-03-07T12:53:43;17.50;;;13.55;;
67889;SDS011;54685;52.082;5.426;2024-03-07T12:56:10;15.95;;;12.25;;
67889;SDS011;54685;52.082;5.426;2024-03-07T12:58:37;19.73;;;13.60;;
67889;SDS011;54685;52.082;5.426;2024-03-07T13:01:04;22.60;;;13.27;;
67889;SDS011;54685;52.082;5.426;2024-03-07T13:03:31;20.90;;;13.50;;
67889;SDS011;54685;52.082;5.426;2024-03-07T13:05:58;18.60;;;12.63;;
67889;SDS011;54685;52.082;5.426;2024-03-07T13:08:29;18.92;;;12.00;;
67889;SDS011;54685;52.082;5.426;2024-03-07T13:10:56;17.05;;;11.27;;
67889;SDS011;54685;52.082;5.426;2024-03-07T13:13:28;16.52;;;12.65;;
67889;SDS011;54685;52.082;5.426;2024-03-07T13:16:01;15.90;;;12.00;;
67889;SDS011;54685;52.082;5.426;2024-03-07T13:18:28;17.02;;;14.32;;
67889;SDS011;54685;52.082;5.426;2024-03-07T13:21:03;18.42;;;15.10;;
67889;SDS011;54685;52.082;5.426;2024-03-07T13:23:31;17.65;;;14.32;;
67889;SDS011;54685;52.082;5.426;2024-03-07T13:26:05;19.00;;;13.43;;
67889;SDS011;54685;52.082;5.426;2024-03-07T13:28:35;29.40;;;14.15;;
67889;SDS011;54685;52.082;5.426;2024-03-07T13:31:08;25.33;;;14.55;;
67889;SDS011;54685;52.082;5.426;2024-03-07T13:33:34;16.50;;;13.10;;
67889;SDS011;54685;52.082;5.426;2024-03-07T13:36:03;15.95;;;13.60;;
67889;SDS011;54685;52.082;5.426;2024-03-07T13:38:30;19.30;;;13.77;;
67889;SDS011;54685;52.082;5.426;2024-03-07T13:40:57;17.17;;;13.18;;
67889;SDS011;54685;52.082;5.426;2024-03-07T13:43:24;20.95;;;14.35;;
67889;SDS011;54685;52.082;5.426;2024-03-07T13:45:51;17.38;;;13.55;;
67889;SDS011;54685;52.082;5.426;2024-03-07T13:48:18;16.00;;;13.48;;
67889;SDS011;54685;52.082;5.426;2024-03-07T13:50:46;16.35;;;11.65;;
67889;SDS011;54685;52.082;5.426;2024-03-07T13:53:26;18.80;;;12.68;;
67889;SDS011;54685;52.082;5.426;2024-03-07T14:01:41;18.00;;;13.43;;
67889;SDS011;54685;52.082;5.426;2024-03-07T14:16:12;19.38;;;13.48;;
67889;SDS011;54685;52.082;5.426;2024-03-07T14:24:58;14.90;;;11.32;;
67889;SDS011;54685;52.082;5.426;2024-03-07T14:30:41;14.07;;;11.88;;
67889;SDS011;54685;52.082;5.426;2024-03-07T14:33:22;15.07;;;12.10;;
67889;SDS011;54685;52.082;5.426;2024-03-07T14:36:11;13.95;;;11.43;;
67889;SDS011;54685;52.082;5.426;2024-03-07T14:38:43;14.02;;;10.50;;
67889;SDS011;54685;52.082;5.426;2024-03-07T14:41:17;13.18;;;11.23;;
67889;SDS011;54685;52.082;5.426;2024-03-07T14:43:46;14.73;;;11.38;;
67889;SDS011;54685;52.082;5.426;2024-03-07T14:46:13;14.18;;;10.80;;
67889;SDS011;54685;52.082;5.426;2024-03-07T14:48:41;14.73;;;12.13;;
67889;SDS011;54685;52.082;5.426;2024-03-07T14:51:10;15.13;;;11.52;;
67889;SDS011;54685;52.082;5.426;2024-03-07T14:53:40;16.67;;;11.68;;
67889;SDS011;54685;52.082;5.426;2024-03-07T14:56:08;18.00;;;12.23;;
67889;SDS011;54685;52.082;5.426;2024-03-07T14:58:35;16.92;;;11.82;;
67889;SDS011;54685;52.082;5.426;2024-03-07T15:01:02;18.25;;;13.00;;
67889;SDS011;54685;52.082;5.426;2024-03-07T15:03:38;17.77;;;12.15;;